sensor_id;sensor_type;location;lat;lon;timestamp;temperature;humidity
64549;DHT22;49838;51.798;10.954;2022-12-17T00:01:18;6.30;40.80
64549;DHT22;49838;51.798;10.954;2022-12-17T00:04:03;6.30;40.70
64549;DHT22;49838;51.798;10.954;2022-12-17T00:06:48;6.40;40.80
64549;DHT22;49838;51.798;10.954;2022-12-17T00:09:33;6.40;40.80
64549;DHT22;49838;51.798;10.954;2022-12-17T00:12:18;6.40;40.80
64549;DHT22;49838;51.798;10.954;2022-12-17T00:15:10;6.40;40.80
64549;DHT22;49838;51.798;10.954;2022-12-17T00:18:00;6.50;40.80
64549;DHT22;49838;51.798;10.954;2022-12-17T00:20:50;6.40;40.70
64549;DHT22;49838;51.798;10.954;2022-12-17T00:23:36;6.40;40.70
64549;DHT22;49838;51.798;10.954;2022-12-17T00:26:26;6.40;40.70
64549;DHT22;49838;51.798;10.954;2022-12-17T00:29:11;6.50;40.80
64549;DHT22;49838;51.798;10.954;2022-12-17T00:31:57;6.40;40.70
64549;DHT22;49838;51.798;10.954;2022-12-17T00:34:42;6.40;40.70
64549;DHT22;49838;51.798;10.954;2022-12-17T00:37:27;6.40;40.70
64549;DHT22;49838;51.798;10.954;2022-12-17T00:40:12;6.50;40.80
64549;DHT22;49838;51.798;10.954;2022-12-17T00:43:03;6.50;40.80
64549;DHT22;49838;51.798;10.954;2022-12-17T00:45:50;6.50;40.80
64549;DHT22;49838;51.798;10.954;2022-12-17T00:48:37;6.60;40.80
64549;DHT22;49838;51.798;10.954;2022-12-17T00:51:22;6.60;40.80
64549;DHT22;49838;51.798;10.954;2022-12-17T00:54:07;6.60;40.80
64549;DHT22;49838;51.798;10.954;2022-12-17T00:56:53;6.60;40.80
64549;DHT22;49838;51.798;10.954;2022-12-17T00:59:38;6.60;40.70
64549;DHT22;49838;51.798;10.954;2022-12-17T01:02:23;6.60;40.70
64549;DHT22;49838;51.798;10.954;2022-12-17T01:05:10;6.60;40.80
64549;DHT22;49838;51.798;10.954;2022-12-17T01:08:07;6.60;40.80
64549;DHT22;49838;51.798;10.954;2022-12-17T01:10:56;6.60;40.90
64549;DHT22;49838;51.798;10.954;2022-12-17T01:13:42;6.60;41.00
64549;DHT22;49838;51.798;10.954;2022-12-17T01:16:27;6.60;41.00
64549;DHT22;49838;51.798;10.954;2022-12-17T01:19:12;6.70;41.00
64549;DHT22;49838;51.798;10.954;2022-12-17T01:21:58;6.70;41.00
64549;DHT22;49838;51.798;10.954;2022-12-17T01:24:43;6.80;41.00
64549;DHT22;49838;51.798;10.954;2022-12-17T01:27:28;6.80;41.00
64549;DHT22;49838;51.798;10.954;2022-12-17T01:30:13;6.80;41.00
64549;DHT22;49838;51.798;10.954;2022-12-17T01:32:59;6.80;41.00
64549;DHT22;49838;51.798;10.954;2022-12-17T01:35:45;6.90;41.10
64549;DHT22;49838;51.798;10.954;2022-12-17T01:38:31;6.90;41.10
64549;DHT22;49838;51.798;10.954;2022-12-17T01:41:16;6.90;41.10
64549;DHT22;49838;51.798;10.954;2022-12-17T01:47:20;7.00;41.10
64549;DHT22;49838;51.798;10.954;2022-12-17T01:50:05;7.00;41.10
64549;DHT22;49838;51.798;10.954;2022-12-17T01:52:51;7.10;41.10
64549;DHT22;49838;51.798;10.954;2022-12-17T01:55:42;7.10;41.10
64549;DHT22;49838;51.798;10.954;2022-12-17T01:58:27;7.10;41.10
64549;DHT22;49838;51.798;10.954;2022-12-17T02:01:13;7.10;41.10
64549;DHT22;49838;51.798;10.954;2022-12-17T02:03:58;7.20;41.10
64549;DHT22;49838;51.798;10.954;2022-12-17T02:06:45;7.20;41.00
64549;DHT22;49838;51.798;10.954;2022-12-17T02:09:37;7.20;41.00
64549;DHT22;49838;51.798;10.954;2022-12-17T02:12:32;7.20;41.00
64549;DHT22;49838;51.798;10.954;2022-12-17T02:15:23;7.20;41.00
64549;DHT22;49838;51.798;10.954;2022-12-17T02:18:15;7.30;41.00
64549;DHT22;49838;51.798;10.954;2022-12-17T02:21:07;7.30;41.00
64549;DHT22;49838;51.798;10.954;2022-12-17T02:23:55;7.20;40.90
64549;DHT22;49838;51.798;10.954;2022-12-17T02:26:52;7.10;40.90
64549;DHT22;49838;51.798;10.954;2022-12-17T02:29:40;7.10;41.00
64549;DHT22;49838;51.798;10.954;2022-12-17T02:32:28;7.00;40.90
64549;DHT22;49838;51.798;10.954;2022-12-17T02:35:28;7.00;40.90
64549;DHT22;49838;51.798;10.954;2022-12-17T02:38:16;7.00;40.90
64549;DHT22;49838;51.798;10.954;2022-12-17T02:41:02;7.00;40.80
64549;DHT22;49838;51.798;10.954;2022-12-17T02:43:50;6.90;40.70
64549;DHT22;49838;51.798;10.954;2022-12-17T02:46:38;6.90;40.70
64549;DHT22;49838;51.798;10.954;2022-12-17T02:49:25;6.80;40.70
64549;DHT22;49838;51.798;10.954;2022-12-17T02:52:10;6.80;40.70
64549;DHT22;49838;51.798;10.954;2022-12-17T02:54:55;6.80;40.70
64549;DHT22;49838;51.798;10.954;2022-12-17T02:57:46;6.80;40.70
64549;DHT22;49838;51.798;10.954;2022-12-17T03:00:32;6.80;40.70
64549;DHT22;49838;51.798;10.954;2022-12-17T03:03:13;6.70;40.60
64549;DHT22;49838;51.798;10.954;2022-12-17T03:05:58;6.70;40.60
64549;DHT22;49838;51.798;10.954;2022-12-17T03:08:43;6.60;40.60
64549;DHT22;49838;51.798;10.954;2022-12-17T03:11:28;6.60;40.70
64549;DHT22;49838;51.798;10.954;2022-12-17T03:14:13;6.60;40.70
64549;DHT22;49838;51.798;10.954;2022-12-17T03:17:00;6.60;40.70
64549;DHT22;49838;51.798;10.954;2022-12-17T03:19:45;6.60;40.80
64549;DHT22;49838;51.798;10.954;2022-12-17T03:22:30;6.60;40.70
64549;DHT22;49838;51.798;10.954;2022-12-17T03:25:15;6.60;40.70
64549;DHT22;49838;51.798;10.954;2022-12-17T03:28:03;6.60;40.70
64549;DHT22;49838;51.798;10.954;2022-12-17T03:30:49;6.50;40.60
64549;DHT22;49838;51.798;10.954;2022-12-17T03:33:35;6.40;40.60
64549;DHT22;49838;51.798;10.954;2022-12-17T03:36:20;6.40;40.70
64549;DHT22;49838;51.798;10.954;2022-12-17T03:39:06;6.40;40.80
64549;DHT22;49838;51.798;10.954;2022-12-17T03:41:51;6.50;40.90
64549;DHT22;49838;51.798;10.954;2022-12-17T03:44:36;6.50;40.80
64549;DHT22;49838;51.798;10.954;2022-12-17T03:47:21;6.50;40.70
64549;DHT22;49838;51.798;10.954;2022-12-17T03:50:07;6.50;40.70
64549;DHT22;49838;51.798;10.954;2022-12-17T03:52:52;6.50;40.70
64549;DHT22;49838;51.798;10.954;2022-12-17T03:55:37;6.50;40.80
64549;DHT22;49838;51.798;10.954;2022-12-17T03:58:22;6.60;40.80
64549;DHT22;49838;51.798;10.954;2022-12-17T04:01:07;6.60;40.70
64549;DHT22;49838;51.798;10.954;2022-12-17T04:03:52;6.50;40.60
64549;DHT22;49838;51.798;10.954;2022-12-17T04:06:39;6.50;40.70
64549;DHT22;49838;51.798;10.954;2022-12-17T04:09:24;6.50;40.70
64549;DHT22;49838;51.798;10.954;2022-12-17T04:12:09;6.50;40.70
64549;DHT22;49838;51.798;10.954;2022-12-17T04:14:54;6.60;40.80
64549;DHT22;49838;51.798;10.954;2022-12-17T04:17:39;6.60;40.80
64549;DHT22;49838;51.798;10.954;2022-12-17T04:20:24;6.60;40.80
64549;DHT22;49838;51.798;10.954;2022-12-17T04:23:07;6.70;40.80
64549;DHT22;49838;51.798;10.954;2022-12-17T04:25:52;6.70;40.80
64549;DHT22;49838;51.798;10.954;2022-12-17T04:28:37;6.70;40.70
64549;DHT22;49838;51.798;10.954;2022-12-17T04:31:22;6.70;40.70
64549;DHT22;49838;51.798;10.954;2022-12-17T04:34:07;6.70;40.70
64549;DHT22;49838;51.798;10.954;2022-12-17T04:36:52;6.70;40.70
64549;DHT22;49838;51.798;10.954;2022-12-17T04:39:38;6.70;40.70
64549;DHT22;49838;51.798;10.954;2022-12-17T04:42:23;6.70;40.70
64549;DHT22;49838;51.798;10.954;2022-12-17T04:45:08;6.70;40.70
64549;DHT22;49838;51.798;10.954;2022-12-17T04:47:59;6.70;40.80
64549;DHT22;49838;51.798;10.954;2022-12-17T04:50:44;6.70;40.80
64549;DHT22;49838;51.798;10.954;2022-12-17T04:53:29;6.70;40.80
64549;DHT22;49838;51.798;10.954;2022-12-17T04:56:15;6.70;40.80
64549;DHT22;49838;51.798;10.954;2022-12-17T04:59:00;6.70;40.80
64549;DHT22;49838;51.798;10.954;2022-12-17T05:01:45;6.60;40.70
64549;DHT22;49838;51.798;10.954;2022-12-17T05:04:30;6.60;40.70
64549;DHT22;49838;51.798;10.954;2022-12-17T05:07:14;6.60;40.70
64549;DHT22;49838;51.798;10.954;2022-12-17T05:09:59;6.60;40.70
64549;DHT22;49838;51.798;10.954;2022-12-17T05:12:46;6.70;40.80
64549;DHT22;49838;51.798;10.954;2022-12-17T05:15:31;6.70;40.80
64549;DHT22;49838;51.798;10.954;2022-12-17T05:18:27;6.70;40.80
64549;DHT22;49838;51.798;10.954;2022-12-17T05:21:12;6.70;40.70
64549;DHT22;49838;51.798;10.954;2022-12-17T05:23:57;6.70;40.70
64549;DHT22;49838;51.798;10.954;2022-12-17T05:26:42;6.70;40.70
64549;DHT22;49838;51.798;10.954;2022-12-17T05:29:29;6.70;40.70
64549;DHT22;49838;51.798;10.954;2022-12-17T05:32:14;6.70;40.80
64549;DHT22;49838;51.798;10.954;2022-12-17T05:34:59;6.70;40.80
64549;DHT22;49838;51.798;10.954;2022-12-17T05:37:44;6.70;40.80
64549;DHT22;49838;51.798;10.954;2022-12-17T05:40:28;6.70;40.70
64549;DHT22;49838;51.798;10.954;2022-12-17T05:43:13;6.80;40.80
64549;DHT22;49838;51.798;10.954;2022-12-17T05:46:08;6.80;40.80
64549;DHT22;49838;51.798;10.954;2022-12-17T05:48:52;6.80;40.80
64549;DHT22;49838;51.798;10.954;2022-12-17T05:51:37;6.80;40.80
64549;DHT22;49838;51.798;10.954;2022-12-17T05:54:34;6.80;40.70
64549;DHT22;49838;51.798;10.954;2022-12-17T05:57:19;6.80;40.70
64549;DHT22;49838;51.798;10.954;2022-12-17T06:00:04;6.80;40.70
64549;DHT22;49838;51.798;10.954;2022-12-17T06:02:56;6.80;40.70
64549;DHT22;49838;51.798;10.954;2022-12-17T06:05:41;6.80;40.70
64549;DHT22;49838;51.798;10.954;2022-12-17T06:08:27;6.80;40.70
64549;DHT22;49838;51.798;10.954;2022-12-17T06:11:12;6.70;40.70
64549;DHT22;49838;51.798;10.954;2022-12-17T06:13:57;6.60;40.70
64549;DHT22;49838;51.798;10.954;2022-12-17T06:16:53;6.50;40.70
64549;DHT22;49838;51.798;10.954;2022-12-17T06:19:40;6.40;40.80
64549;DHT22;49838;51.798;10.954;2022-12-17T06:22:25;6.40;40.90
64549;DHT22;49838;51.798;10.954;2022-12-17T06:25:10;6.40;40.80
64549;DHT22;49838;51.798;10.954;2022-12-17T06:27:58;6.40;40.80
64549;DHT22;49838;51.798;10.954;2022-12-17T06:30:48;6.40;40.80
64549;DHT22;49838;51.798;10.954;2022-12-17T06:33:33;6.40;40.80
64549;DHT22;49838;51.798;10.954;2022-12-17T06:36:19;6.40;40.70
64549;DHT22;49838;51.798;10.954;2022-12-17T06:39:01;6.40;40.70
64549;DHT22;49838;51.798;10.954;2022-12-17T06:41:46;6.40;40.70
64549;DHT22;49838;51.798;10.954;2022-12-17T06:44:36;6.40;40.70
64549;DHT22;49838;51.798;10.954;2022-12-17T06:47:21;6.40;40.70
64549;DHT22;49838;51.798;10.954;2022-12-17T06:50:06;6.40;40.70
64549;DHT22;49838;51.798;10.954;2022-12-17T06:53:02;6.30;40.80
64549;DHT22;49838;51.798;10.954;2022-12-17T06:55:48;6.30;40.80
64549;DHT22;49838;51.798;10.954;2022-12-17T06:58:33;6.30;40.80
64549;DHT22;49838;51.798;10.954;2022-12-17T07:01:24;6.40;40.80
64549;DHT22;49838;51.798;10.954;2022-12-17T07:04:10;6.40;40.80
64549;DHT22;49838;51.798;10.954;2022-12-17T07:06:55;6.40;40.80
64549;DHT22;49838;51.798;10.954;2022-12-17T07:09:41;6.40;40.80
64549;DHT22;49838;51.798;10.954;2022-12-17T07:12:26;6.40;40.70
64549;DHT22;49838;51.798;10.954;2022-12-17T07:15:11;6.40;40.70
64549;DHT22;49838;51.798;10.954;2022-12-17T07:18:00;6.40;40.70
64549;DHT22;49838;51.798;10.954;2022-12-17T07:20:46;6.40;40.70
64549;DHT22;49838;51.798;10.954;2022-12-17T07:23:32;6.40;40.70
64549;DHT22;49838;51.798;10.954;2022-12-17T07:26:18;6.40;40.70
64549;DHT22;49838;51.798;10.954;2022-12-17T07:29:03;6.40;40.70
64549;DHT22;49838;51.798;10.954;2022-12-17T07:31:48;6.40;40.70
64549;DHT22;49838;51.798;10.954;2022-12-17T07:34:33;6.40;40.70
64549;DHT22;49838;51.798;10.954;2022-12-17T07:37:26;6.50;40.70
64549;DHT22;49838;51.798;10.954;2022-12-17T07:40:11;6.50;40.70
64549;DHT22;49838;51.798;10.954;2022-12-17T07:42:57;6.50;40.70
64549;DHT22;49838;51.798;10.954;2022-12-17T07:45:42;6.50;40.70
64549;DHT22;49838;51.798;10.954;2022-12-17T07:48:27;6.50;40.70
64549;DHT22;49838;51.798;10.954;2022-12-17T07:51:12;6.60;40.70
64549;DHT22;49838;51.798;10.954;2022-12-17T07:53:56;6.60;40.70
64549;DHT22;49838;51.798;10.954;2022-12-17T07:56:41;6.70;40.80
64549;DHT22;49838;51.798;10.954;2022-12-17T07:59:28;6.70;40.70
64549;DHT22;49838;51.798;10.954;2022-12-17T08:02:13;6.70;40.80
64549;DHT22;49838;51.798;10.954;2022-12-17T08:04:58;6.80;40.80
64549;DHT22;49838;51.798;10.954;2022-12-17T08:07:43;6.90;40.80
64549;DHT22;49838;51.798;10.954;2022-12-17T08:10:28;6.90;40.80
64549;DHT22;49838;51.798;10.954;2022-12-17T08:13:13;6.90;40.80
64549;DHT22;49838;51.798;10.954;2022-12-17T08:16:00;7.00;40.90
64549;DHT22;49838;51.798;10.954;2022-12-17T08:18:45;7.00;40.90
64549;DHT22;49838;51.798;10.954;2022-12-17T08:21:32;7.10;41.00
64549;DHT22;49838;51.798;10.954;2022-12-17T08:24:17;7.10;41.00
64549;DHT22;49838;51.798;10.954;2022-12-17T08:27:02;7.10;41.00
64549;DHT22;49838;51.798;10.954;2022-12-17T08:29:56;7.20;41.10
64549;DHT22;49838;51.798;10.954;2022-12-17T08:32:42;7.30;41.10
64549;DHT22;49838;51.798;10.954;2022-12-17T08:35:27;7.30;41.10
64549;DHT22;49838;51.798;10.954;2022-12-17T08:38:12;7.40;41.20
64549;DHT22;49838;51.798;10.954;2022-12-17T08:40:58;7.50;41.20
64549;DHT22;49838;51.798;10.954;2022-12-17T08:43:43;7.50;41.20
64549;DHT22;49838;51.798;10.954;2022-12-17T08:46:28;7.60;41.30
64549;DHT22;49838;51.798;10.954;2022-12-17T08:49:14;7.60;41.20
64549;DHT22;49838;51.798;10.954;2022-12-17T08:51:59;7.70;41.30
64549;DHT22;49838;51.798;10.954;2022-12-17T08:54:44;7.70;41.30
64549;DHT22;49838;51.798;10.954;2022-12-17T08:57:29;7.80;41.40
64549;DHT22;49838;51.798;10.954;2022-12-17T09:00:14;7.90;41.40
64549;DHT22;49838;51.798;10.954;2022-12-17T09:03:00;8.00;41.50
64549;DHT22;49838;51.798;10.954;2022-12-17T09:05:47;8.10;41.40
64549;DHT22;49838;51.798;10.954;2022-12-17T09:08:32;8.10;41.40
64549;DHT22;49838;51.798;10.954;2022-12-17T09:11:13;8.10;41.40
64549;DHT22;49838;51.798;10.954;2022-12-17T09:13:59;8.10;41.40
64549;DHT22;49838;51.798;10.954;2022-12-17T09:16:44;8.10;41.50
64549;DHT22;49838;51.798;10.954;2022-12-17T09:19:29;8.10;41.60
64549;DHT22;49838;51.798;10.954;2022-12-17T09:22:16;8.30;41.80
64549;DHT22;49838;51.798;10.954;2022-12-17T09:25:01;8.90;42.60
64549;DHT22;49838;51.798;10.954;2022-12-17T09:27:46;9.30;43.40
64549;DHT22;49838;51.798;10.954;2022-12-17T09:30:31;10.10;43.70
64549;DHT22;49838;51.798;10.954;2022-12-17T09:33:16;10.70;44.20
64549;DHT22;49838;51.798;10.954;2022-12-17T09:36:10;11.40;44.70
64549;DHT22;49838;51.798;10.954;2022-12-17T09:38:56;12.00;45.20
64549;DHT22;49838;51.798;10.954;2022-12-17T09:41:44;12.60;44.70
64549;DHT22;49838;51.798;10.954;2022-12-17T09:44:52;12.90;43.80
64549;DHT22;49838;51.798;10.954;2022-12-17T09:47:47;13.60;44.20
64549;DHT22;49838;51.798;10.954;2022-12-17T09:50:39;13.80;43.60
64549;DHT22;49838;51.798;10.954;2022-12-17T09:53:27;13.80;42.80
64549;DHT22;49838;51.798;10.954;2022-12-17T09:56:29;13.60;42.30
64549;DHT22;49838;51.798;10.954;2022-12-17T09:59:18;13.60;42.10
64549;DHT22;49838;51.798;10.954;2022-12-17T10:02:11;13.40;41.60
64549;DHT22;49838;51.798;10.954;2022-12-17T10:04:57;13.20;41.20
64549;DHT22;49838;51.798;10.954;2022-12-17T10:07:44;13.00;41.10
64549;DHT22;49838;51.798;10.954;2022-12-17T10:10:31;12.90;41.10
64549;DHT22;49838;51.798;10.954;2022-12-17T10:13:18;12.80;41.00
64549;DHT22;49838;51.798;10.954;2022-12-17T10:16:15;12.70;40.90
64549;DHT22;49838;51.798;10.954;2022-12-17T10:19:04;12.60;40.70
64549;DHT22;49838;51.798;10.954;2022-12-17T10:22:04;12.50;40.50
64549;DHT22;49838;51.798;10.954;2022-12-17T10:24:50;12.30;40.30
64549;DHT22;49838;51.798;10.954;2022-12-17T10:27:35;12.20;40.30
64549;DHT22;49838;51.798;10.954;2022-12-17T10:30:22;12.00;40.20
64549;DHT22;49838;51.798;10.954;2022-12-17T10:33:10;11.90;40.20
64549;DHT22;49838;51.798;10.954;2022-12-17T10:36:02;11.80;40.20
64549;DHT22;49838;51.798;10.954;2022-12-17T10:38:52;11.60;40.10
64549;DHT22;49838;51.798;10.954;2022-12-17T10:41:39;11.50;40.20
64549;DHT22;49838;51.798;10.954;2022-12-17T10:44:26;11.30;40.10
64549;DHT22;49838;51.798;10.954;2022-12-17T10:47:14;11.20;40.10
64549;DHT22;49838;51.798;10.954;2022-12-17T10:50:00;11.10;40.00
64549;DHT22;49838;51.798;10.954;2022-12-17T10:52:49;10.90;39.90
64549;DHT22;49838;51.798;10.954;2022-12-17T10:55:35;10.70;39.80
64549;DHT22;49838;51.798;10.954;2022-12-17T10:58:20;10.50;39.80
64549;DHT22;49838;51.798;10.954;2022-12-17T11:01:09;10.50;40.00
64549;DHT22;49838;51.798;10.954;2022-12-17T11:03:56;10.50;40.10
64549;DHT22;49838;51.798;10.954;2022-12-17T11:06:43;10.70;40.90
64549;DHT22;49838;51.798;10.954;2022-12-17T11:09:33;11.00;41.80
64549;DHT22;49838;51.798;10.954;2022-12-17T11:12:24;11.90;43.50
64549;DHT22;49838;51.798;10.954;2022-12-17T11:15:15;12.60;43.70
64549;DHT22;49838;51.798;10.954;2022-12-17T11:18:03;12.90;42.70
64549;DHT22;49838;51.798;10.954;2022-12-17T11:21:03;12.90;41.80
64549;DHT22;49838;51.798;10.954;2022-12-17T11:23:52;12.90;41.30
64549;DHT22;49838;51.798;10.954;2022-12-17T11:26:39;12.80;40.60
64549;DHT22;49838;51.798;10.954;2022-12-17T11:29:27;12.70;40.20
64549;DHT22;49838;51.798;10.954;2022-12-17T11:32:16;12.50;39.90
64549;DHT22;49838;51.798;10.954;2022-12-17T11:35:15;12.30;39.70
64549;DHT22;49838;51.798;10.954;2022-12-17T11:38:11;12.10;39.60
64549;DHT22;49838;51.798;10.954;2022-12-17T11:41:07;11.90;39.50
64549;DHT22;49838;51.798;10.954;2022-12-17T11:44:00;11.70;39.40
64549;DHT22;49838;51.798;10.954;2022-12-17T11:46:57;11.50;39.30
64549;DHT22;49838;51.798;10.954;2022-12-17T11:49:48;11.40;39.30
64549;DHT22;49838;51.798;10.954;2022-12-17T11:52:42;11.20;39.20
64549;DHT22;49838;51.798;10.954;2022-12-17T11:55:35;11.00;39.00
64549;DHT22;49838;51.798;10.954;2022-12-17T11:58:25;10.90;39.10
64549;DHT22;49838;51.798;10.954;2022-12-17T12:01:16;10.80;39.10
64549;DHT22;49838;51.798;10.954;2022-12-17T12:04:12;10.80;39.20
64549;DHT22;49838;51.798;10.954;2022-12-17T12:07:09;10.70;39.40
64549;DHT22;49838;51.798;10.954;2022-12-17T12:10:02;10.70;39.40
64549;DHT22;49838;51.798;10.954;2022-12-17T12:12:55;10.70;39.40
64549;DHT22;49838;51.798;10.954;2022-12-17T12:15:50;10.60;39.40
64549;DHT22;49838;51.798;10.954;2022-12-17T12:18:43;10.60;39.40
64549;DHT22;49838;51.798;10.954;2022-12-17T12:21:36;10.50;39.40
64549;DHT22;49838;51.798;10.954;2022-12-17T12:24:29;10.50;39.50
64549;DHT22;49838;51.798;10.954;2022-12-17T12:27:28;10.50;39.60
64549;DHT22;49838;51.798;10.954;2022-12-17T12:30:21;10.60;39.80
64549;DHT22;49838;51.798;10.954;2022-12-17T12:33:13;10.60;39.70
64549;DHT22;49838;51.798;10.954;2022-12-17T12:36:09;10.70;39.60
64549;DHT22;49838;51.798;10.954;2022-12-17T12:38:58;10.70;39.70
64549;DHT22;49838;51.798;10.954;2022-12-17T12:41:45;10.70;39.70
64549;DHT22;49838;51.798;10.954;2022-12-17T12:44:38;10.80;39.80
64549;DHT22;49838;51.798;10.954;2022-12-17T12:47:34;10.90;39.90
64549;DHT22;49838;51.798;10.954;2022-12-17T12:50:28;10.90;39.50
64549;DHT22;49838;51.798;10.954;2022-12-17T12:53:20;10.90;39.60
64549;DHT22;49838;51.798;10.954;2022-12-17T12:59:10;10.80;39.60
64549;DHT22;49838;51.798;10.954;2022-12-17T13:02:10;10.80;39.50
64549;DHT22;49838;51.798;10.954;2022-12-17T13:04:59;10.80;39.50
64549;DHT22;49838;51.798;10.954;2022-12-17T13:07:44;10.70;39.40
64549;DHT22;49838;51.798;10.954;2022-12-17T13:10:18;10.60;39.20
64549;DHT22;49838;51.798;10.954;2022-12-17T13:12:54;10.40;39.00
64549;DHT22;49838;51.798;10.954;2022-12-17T13:15:23;10.40;39.10
64549;DHT22;49838;51.798;10.954;2022-12-17T13:17:59;10.30;39.20
64549;DHT22;49838;51.798;10.954;2022-12-17T13:20:42;10.30;39.20
64549;DHT22;49838;51.798;10.954;2022-12-17T13:23:14;10.10;39.10
64549;DHT22;49838;51.798;10.954;2022-12-17T13:25:44;10.10;39.10
64549;DHT22;49838;51.798;10.954;2022-12-17T13:28:24;10.00;38.90
64549;DHT22;49838;51.798;10.954;2022-12-17T13:30:59;9.90;39.80
64549;DHT22;49838;51.798;10.954;2022-12-17T13:33:29;9.80;39.70
64549;DHT22;49838;51.798;10.954;2022-12-17T13:36:06;9.60;39.60
64549;DHT22;49838;51.798;10.954;2022-12-17T13:38:41;9.50;39.60
64549;DHT22;49838;51.798;10.954;2022-12-17T13:41:17;9.40;39.80
64549;DHT22;49838;51.798;10.954;2022-12-17T13:43:46;9.30;39.80
64549;DHT22;49838;51.798;10.954;2022-12-17T13:46:18;9.30;39.80
64549;DHT22;49838;51.798;10.954;2022-12-17T13:48:51;9.30;39.90
64549;DHT22;49838;51.798;10.954;2022-12-17T13:51:21;9.20;39.70
64549;DHT22;49838;51.798;10.954;2022-12-17T13:53:50;9.10;39.70
64549;DHT22;49838;51.798;10.954;2022-12-17T13:56:23;9.10;39.70
64549;DHT22;49838;51.798;10.954;2022-12-17T13:58:53;9.00;39.70
64549;DHT22;49838;51.798;10.954;2022-12-17T14:01:21;8.90;39.50
64549;DHT22;49838;51.798;10.954;2022-12-17T14:03:51;8.90;39.60
64549;DHT22;49838;51.798;10.954;2022-12-17T14:06:22;8.80;39.50
64549;DHT22;49838;51.798;10.954;2022-12-17T14:08:52;8.80;39.50
64549;DHT22;49838;51.798;10.954;2022-12-17T14:11:21;8.70;39.50
64549;DHT22;49838;51.798;10.954;2022-12-17T14:14:07;8.60;39.40
64549;DHT22;49838;51.798;10.954;2022-12-17T14:16:41;8.50;39.30
64549;DHT22;49838;51.798;10.954;2022-12-17T14:19:10;8.40;39.30
64549;DHT22;49838;51.798;10.954;2022-12-17T14:21:39;8.30;39.20
64549;DHT22;49838;51.798;10.954;2022-12-17T14:24:09;8.30;39.30
64549;DHT22;49838;51.798;10.954;2022-12-17T14:26:48;8.20;39.20
64549;DHT22;49838;51.798;10.954;2022-12-17T14:29:20;8.10;39.20
64549;DHT22;49838;51.798;10.954;2022-12-17T14:31:52;8.10;39.20
64549;DHT22;49838;51.798;10.954;2022-12-17T14:34:21;8.00;39.10
64549;DHT22;49838;51.798;10.954;2022-12-17T14:36:53;7.90;39.10
64549;DHT22;49838;51.798;10.954;2022-12-17T14:39:23;7.80;39.00
64549;DHT22;49838;51.798;10.954;2022-12-17T14:41:54;7.80;39.00
64549;DHT22;49838;51.798;10.954;2022-12-17T14:44:47;7.70;39.00
64549;DHT22;49838;51.798;10.954;2022-12-17T14:47:17;7.60;39.00
64549;DHT22;49838;51.798;10.954;2022-12-17T14:49:55;7.50;38.90
64549;DHT22;49838;51.798;10.954;2022-12-17T14:52:39;7.40;38.90
64549;DHT22;49838;51.798;10.954;2022-12-17T14:55:22;7.40;38.90
64549;DHT22;49838;51.798;10.954;2022-12-17T14:58:17;7.30;38.80
64549;DHT22;49838;51.798;10.954;2022-12-17T15:00:47;7.20;38.80
64549;DHT22;49838;51.798;10.954;2022-12-17T15:03:21;7.20;38.80
64549;DHT22;49838;51.798;10.954;2022-12-17T15:05:52;7.10;38.70
64549;DHT22;49838;51.798;10.954;2022-12-17T15:08:24;7.00;38.70
64549;DHT22;49838;51.798;10.954;2022-12-17T15:10:51;6.90;38.70
64549;DHT22;49838;51.798;10.954;2022-12-17T15:13:19;6.80;38.60
64549;DHT22;49838;51.798;10.954;2022-12-17T15:15:49;6.80;38.60
64549;DHT22;49838;51.798;10.954;2022-12-17T15:18:24;6.70;38.60
64549;DHT22;49838;51.798;10.954;2022-12-17T15:20:51;6.60;38.60
64549;DHT22;49838;51.798;10.954;2022-12-17T15:23:19;6.60;38.50
64549;DHT22;49838;51.798;10.954;2022-12-17T15:25:50;6.50;38.50
64549;DHT22;49838;51.798;10.954;2022-12-17T15:28:19;6.50;38.50
64549;DHT22;49838;51.798;10.954;2022-12-17T15:30:47;6.40;38.40
64549;DHT22;49838;51.798;10.954;2022-12-17T15:33:15;6.40;38.40
64549;DHT22;49838;51.798;10.954;2022-12-17T15:35:42;6.30;38.40
64549;DHT22;49838;51.798;10.954;2022-12-17T15:38:10;6.30;38.40
64549;DHT22;49838;51.798;10.954;2022-12-17T15:40:38;6.20;38.30
64549;DHT22;49838;51.798;10.954;2022-12-17T15:43:13;6.20;38.30
64549;DHT22;49838;51.798;10.954;2022-12-17T15:45:43;6.10;38.30
64549;DHT22;49838;51.798;10.954;2022-12-17T15:48:14;6.00;38.20
64549;DHT22;49838;51.798;10.954;2022-12-17T15:50:43;6.00;38.30
64549;DHT22;49838;51.798;10.954;2022-12-17T15:53:13;5.90;38.20
64549;DHT22;49838;51.798;10.954;2022-12-17T15:55:41;5.90;38.20
64549;DHT22;49838;51.798;10.954;2022-12-17T15:58:08;5.80;38.20
64549;DHT22;49838;51.798;10.954;2022-12-17T16:00:40;5.80;38.20
64549;DHT22;49838;51.798;10.954;2022-12-17T16:03:07;5.80;38.20
64549;DHT22;49838;51.798;10.954;2022-12-17T16:05:35;5.70;38.10
64549;DHT22;49838;51.798;10.954;2022-12-17T16:08:02;5.80;38.20
64549;DHT22;49838;51.798;10.954;2022-12-17T16:10:30;5.70;38.10
64549;DHT22;49838;51.798;10.954;2022-12-17T16:12:57;5.70;38.20
64549;DHT22;49838;51.798;10.954;2022-12-17T16:15:24;5.60;38.10
64549;DHT22;49838;51.798;10.954;2022-12-17T16:17:54;5.50;38.00
64549;DHT22;49838;51.798;10.954;2022-12-17T16:20:21;5.50;38.00
64549;DHT22;49838;51.798;10.954;2022-12-17T16:22:49;5.50;38.10
64549;DHT22;49838;51.798;10.954;2022-12-17T16:25:16;5.40;38.00
64549;DHT22;49838;51.798;10.954;2022-12-17T16:27:47;5.40;38.00
64549;DHT22;49838;51.798;10.954;2022-12-17T16:30:21;5.40;38.00
64549;DHT22;49838;51.798;10.954;2022-12-17T16:32:48;5.30;37.90
64549;DHT22;49838;51.798;10.954;2022-12-17T16:35:17;5.30;38.00
64549;DHT22;49838;51.798;10.954;2022-12-17T16:37:44;5.20;37.90
64549;DHT22;49838;51.798;10.954;2022-12-17T16:40:14;5.20;37.90
64549;DHT22;49838;51.798;10.954;2022-12-17T16:42:42;5.10;37.90
64549;DHT22;49838;51.798;10.954;2022-12-17T16:45:09;5.10;37.90
64549;DHT22;49838;51.798;10.954;2022-12-17T16:47:37;5.10;37.90
64549;DHT22;49838;51.798;10.954;2022-12-17T16:50:04;5.10;37.90
64549;DHT22;49838;51.798;10.954;2022-12-17T16:52:33;5.00;37.80
64549;DHT22;49838;51.798;10.954;2022-12-17T16:55:01;5.00;37.90
64549;DHT22;49838;51.798;10.954;2022-12-17T16:57:28;4.90;37.80
64549;DHT22;49838;51.798;10.954;2022-12-17T16:59:55;4.90;37.80
64549;DHT22;49838;51.798;10.954;2022-12-17T17:02:23;4.90;37.80
64549;DHT22;49838;51.798;10.954;2022-12-17T17:04:50;4.90;37.80
64549;DHT22;49838;51.798;10.954;2022-12-17T17:07:18;4.90;37.80
64549;DHT22;49838;51.798;10.954;2022-12-17T17:09:46;4.80;37.80
64549;DHT22;49838;51.798;10.954;2022-12-17T17:12:14;4.80;37.80
64549;DHT22;49838;51.798;10.954;2022-12-17T17:14:41;4.80;37.80